createdAt,value
2022-11-16T00:01:13.202Z,99460.16
2022-11-16T00:03:40.788Z,99454.66
2022-11-16T00:06:09.204Z,99455.13
2022-11-16T00:08:38.955Z,99456.94
2022-11-16T00:11:15.429Z,99455.72
2022-11-16T00:13:43.804Z,99450.50
2022-11-16T00:16:17.876Z,99449.81
2022-11-16T00:18:45.160Z,99449.34
2022-11-16T00:21:11.940Z,99439.81
2022-11-16T00:23:39.944Z,99443.31
2022-11-16T00:26:08.610Z,99442.09
2022-11-16T00:28:36.557Z,99437.75
2022-11-16T00:31:07.123Z,99446.16
2022-11-16T00:33:34.937Z,99431.91
2022-11-16T00:36:03.941Z,99426.97
2022-11-16T00:38:31.878Z,99429.72
2022-11-16T00:40:59.253Z,99435.69
2022-11-16T00:43:26.769Z,99425.97
2022-11-16T00:45:53.998Z,99422.63
2022-11-16T00:48:21.688Z,99423.16
2022-11-16T00:50:48.775Z,99419.56
2022-11-16T00:53:18.356Z,99423.28
2022-11-16T00:55:46.628Z,99417.78
2022-11-16T00:58:16.040Z,99413.78
2022-11-16T01:00:45.165Z,99406.09
2022-11-16T01:03:12.158Z,99406.91
2022-11-16T01:05:39.297Z,99403.06
2022-11-16T01:08:07.813Z,99404.75
2022-11-16T01:10:39.789Z,99399.03
2022-11-16T01:13:07.236Z,99400.22
2022-11-16T01:15:35.193Z,99396.56
2022-11-16T01:18:02.072Z,99385.22
2022-11-16T01:20:29.946Z,99394.47
2022-11-16T01:22:56.974Z,99385.38
2022-11-16T01:25:23.972Z,99383.25
2022-11-16T01:27:51.070Z,99380.16
2022-11-16T01:30:25.131Z,99382.84
2022-11-16T01:33:05.407Z,99379.56
2022-11-16T01:35:32.339Z,99377.09
2022-11-16T01:37:59.635Z,99377.16
2022-11-16T01:40:28.173Z,99368.97
2022-11-16T01:42:54.988Z,99363.72
2022-11-16T01:45:35.421Z,99369.03
2022-11-16T01:48:05.491Z,99362.03
2022-11-16T01:50:34.946Z,99357.88
2022-11-16T01:53:06.021Z,99360.22
2022-11-16T01:55:43.425Z,99355.91
2022-11-16T01:58:21.312Z,99350.09
2022-11-16T02:00:53.218Z,99342.25
2022-11-16T02:03:29.861Z,99338.75
2022-11-16T02:06:27.480Z,99336.31
2022-11-16T02:09:51.933Z,99333.91
2022-11-16T02:12:38.213Z,99335.31
2022-11-16T02:15:31.881Z,99327.00
2022-11-16T02:18:57.246Z,99333.03
2022-11-16T02:21:37.180Z,99326.72
2022-11-16T02:24:19.215Z,99319.19
2022-11-16T02:27:07.704Z,99306.38
2022-11-16T02:29:37.416Z,99302.06
2022-11-16T02:32:25.482Z,99302.22
2022-11-16T02:34:58.309Z,99298.34
2022-11-16T02:37:28.725Z,99295.66
2022-11-16T02:39:59.687Z,99288.53
2022-11-16T02:42:34.559Z,99284.44
2022-11-16T02:45:06.939Z,99290.00
2022-11-16T02:47:35.799Z,99284.63
2022-11-16T02:50:14.309Z,99285.53
2022-11-16T02:52:41.337Z,99280.91
2022-11-16T02:55:10.538Z,99284.84
2022-11-16T02:57:46.488Z,99275.13
2022-11-16T03:00:26.661Z,99280.19
2022-11-16T03:03:19.015Z,99272.75
2022-11-16T03:05:58.358Z,99263.28
2022-11-16T03:08:42.207Z,99269.16
2022-11-16T03:11:30.402Z,99259.53
2022-11-16T03:14:05.819Z,99259.69
2022-11-16T03:16:40.814Z,99258.72
2022-11-16T03:19:13.834Z,99246.16
2022-11-16T03:22:05.536Z,99245.47
2022-11-16T03:24:33.534Z,99250.25
2022-11-16T03:27:15.537Z,99249.19
2022-11-16T03:29:42.441Z,99241.91
2022-11-16T03:32:33.892Z,99240.63
2022-11-16T03:35:19.947Z,99229.84
2022-11-16T03:37:50.693Z,99226.50
2022-11-16T03:40:19.435Z,99228.19
2022-11-16T03:42:49.778Z,99229.44
2022-11-16T03:45:19.170Z,99225.28
2022-11-16T03:47:46.334Z,99211.88
2022-11-16T03:50:14.080Z,99217.91
2022-11-16T03:52:42.120Z,99207.03
2022-11-16T03:55:09.670Z,99202.28
2022-11-16T03:57:41.389Z,99197.28
2022-11-16T04:00:09.456Z,99204.75
2022-11-16T04:02:42.972Z,99195.66
2022-11-16T04:05:34.302Z,99202.00
2022-11-16T04:08:19.706Z,99204.00
2022-11-16T04:11:05.337Z,99197.50
2022-11-16T04:13:53.955Z,99207.22
2022-11-16T04:16:39.574Z,99201.53
2022-11-16T04:19:29.859Z,99197.09
2022-11-16T04:22:22.834Z,99193.13
2022-11-16T04:24:55.002Z,99188.19
2022-11-16T04:27:47.060Z,99192.47
2022-11-16T04:30:14.571Z,99175.19
2022-11-16T04:33:01.003Z,99176.22
2022-11-16T04:35:48.131Z,99175.91
2022-11-16T04:38:15.170Z,99170.88
2022-11-16T04:40:42.107Z,99164.72
2022-11-16T04:43:11.485Z,99168.91
2022-11-16T04:45:59.431Z,99162.06
2022-11-16T04:48:33.816Z,99147.00
2022-11-16T04:51:02.520Z,99154.47
2022-11-16T04:53:29.899Z,99150.59
2022-11-16T04:56:07.266Z,99146.03
2022-11-16T04:58:34.941Z,99138.00
2022-11-16T05:01:02.513Z,99144.63
2022-11-16T05:03:29.422Z,99140.03
2022-11-16T05:05:56.291Z,99129.91
2022-11-16T05:08:23.316Z,99138.09
2022-11-16T05:10:52.359Z,99138.31
2022-11-16T05:13:19.951Z,99125.72
2022-11-16T05:15:49.321Z,99126.47
2022-11-16T05:18:16.604Z,99121.72
2022-11-16T05:21:01.890Z,99121.41
2022-11-16T05:23:56.200Z,99114.00
2022-11-16T05:26:25.891Z,99113.53
2022-11-16T05:28:54.271Z,99109.75
2022-11-16T05:31:21.176Z,99111.75
2022-11-16T05:33:48.588Z,99106.44
2022-11-16T05:36:16.270Z,99103.53
2022-11-16T05:38:43.238Z,99101.47
2022-11-16T05:41:10.358Z,99101.22
2022-11-16T05:43:37.879Z,99095.63
2022-11-16T05:46:13.702Z,99097.31
2022-11-16T05:48:40.703Z,99093.38
2022-11-16T05:51:08.674Z,99078.28
2022-11-16T05:53:35.630Z,99077.53
2022-11-16T05:56:03.037Z,99083.94
2022-11-16T05:58:33.282Z,99082.44
2022-11-16T06:01:00.895Z,99084.53
2022-11-16T06:03:31.748Z,99082.00
2022-11-16T06:05:59.760Z,99073.06
2022-11-16T06:08:28.333Z,99062.16
2022-11-16T06:11:00.897Z,99058.28
2022-11-16T06:13:27.845Z,99066.59
2022-11-16T06:15:57.598Z,99059.41
2022-11-16T06:18:24.783Z,99056.66
2022-11-16T06:20:51.780Z,99049.88
2022-11-16T06:23:21.453Z,99052.22
2022-11-16T06:25:53.957Z,99046.44
2022-11-16T06:28:21.846Z,99040.84
2022-11-16T06:30:49.337Z,99039.66
2022-11-16T06:33:17.120Z,99035.59
2022-11-16T06:35:44.464Z,99032.06
2022-11-16T06:38:18.720Z,99039.06
2022-11-16T06:40:52.540Z,99046.31
2022-11-16T06:43:21.421Z,99037.94
2022-11-16T06:45:53.917Z,99041.09
2022-11-16T06:48:20.978Z,99038.41
2022-11-16T06:50:49.913Z,99041.56
2022-11-16T06:53:19.492Z,99042.13
2022-11-16T06:55:48.287Z,99036.91
2022-11-16T06:58:15.802Z,99033.53
2022-11-16T07:00:44.088Z,99034.09
2022-11-16T07:03:11.776Z,99041.44
2022-11-16T07:05:41.290Z,99041.56
2022-11-16T07:08:12.775Z,99038.75
2022-11-16T07:10:40.125Z,99038.31
2022-11-16T07:13:07.832Z,99048.00
2022-11-16T07:15:37.835Z,99048.34
2022-11-16T07:18:07.555Z,99046.09
2022-11-16T07:20:38.776Z,99033.84
2022-11-16T07:23:09.077Z,99038.06
2022-11-16T07:25:40.352Z,99039.81
2022-11-16T07:28:07.931Z,99037.00
2022-11-16T07:30:35.729Z,99035.25
2022-11-16T07:33:17.271Z,99031.06
2022-11-16T07:36:13.139Z,99022.66
2022-11-16T07:38:40.737Z,99014.38
2022-11-16T07:41:11.827Z,99019.84
2022-11-16T07:43:52.619Z,99014.50
2022-11-16T07:49:18.958Z,99019.72
2022-11-16T07:51:55.162Z,99012.97
2022-11-16T07:54:40.953Z,99014.16
2022-11-16T07:57:08.499Z,99016.50
2022-11-16T07:59:35.522Z,99011.25
2022-11-16T08:02:04.298Z,99002.22
2022-11-16T08:04:32.079Z,99005.03
2022-11-16T08:06:59.642Z,99016.59
2022-11-16T08:09:31.118Z,99005.63
2022-11-16T08:11:58.404Z,99000.72
2022-11-16T08:14:25.236Z,99000.25
2022-11-16T08:16:55.335Z,98999.66
2022-11-16T08:19:29.475Z,99003.50
2022-11-16T08:21:58.174Z,99011.91
2022-11-16T08:24:28.557Z,99001.75
2022-11-16T08:26:57.336Z,99006.09
2022-11-16T08:29:24.277Z,99004.31
2022-11-16T08:31:51.918Z,98999.09
2022-11-16T08:34:21.482Z,98994.19
2022-11-16T08:36:56.186Z,99000.63
2022-11-16T08:39:29.454Z,98990.44
2022-11-16T08:41:56.636Z,98993.97
2022-11-16T08:44:23.693Z,98996.41
2022-11-16T08:46:53.378Z,98993.47
2022-11-16T08:49:35.286Z,98993.13
2022-11-16T08:52:02.327Z,98992.88
2022-11-16T08:54:30.696Z,98991.31
2022-11-16T08:56:57.871Z,98990.03
2022-11-16T08:59:24.903Z,98989.69
2022-11-16T09:01:55.517Z,98985.16
2022-11-16T09:04:23.523Z,98984.69
2022-11-16T09:06:53.063Z,98978.28
2022-11-16T09:09:20.002Z,98979.56
2022-11-16T09:11:46.918Z,98986.69
2022-11-16T09:14:14.151Z,98981.66
2022-11-16T09:16:41.067Z,98985.53
2022-11-16T09:19:22.119Z,98983.66
2022-11-16T09:21:57.247Z,98978.28
2022-11-16T09:24:24.123Z,98976.19
2022-11-16T09:26:51.101Z,98976.19
2022-11-16T09:29:17.947Z,98984.56
2022-11-16T09:31:45.413Z,98977.34
2022-11-16T09:34:12.326Z,98980.03
2022-11-16T09:36:39.225Z,98984.94
2022-11-16T09:42:02.753Z,98975.53
2022-11-16T09:45:17.132Z,98985.66
2022-11-16T09:47:51.322Z,98977.91
2022-11-16T09:50:43.601Z,98984.84
2022-11-16T09:53:46.523Z,98978.56
2022-11-16T09:56:27.220Z,98972.09
2022-11-16T09:59:04.300Z,98969.25
2022-11-16T10:01:42.317Z,98957.16
2022-11-16T10:04:12.901Z,98955.19
2022-11-16T10:07:17.974Z,98959.28
2022-11-16T10:09:46.797Z,98949.59
2022-11-16T10:12:30.691Z,98939.06
2022-11-16T10:15:07.418Z,98943.56
2022-11-16T10:17:52.930Z,98941.84
2022-11-16T10:20:30.413Z,98933.97
2022-11-16T10:23:28.719Z,98927.34
2022-11-16T10:26:22.359Z,98922.63
2022-11-16T10:29:31.700Z,98915.06
2022-11-16T10:32:17.413Z,98902.25
2022-11-16T10:34:50.436Z,98899.25
2022-11-16T10:37:18.018Z,98892.69
2022-11-16T10:39:48.811Z,98885.41
2022-11-16T10:42:35.706Z,98885.16
2022-11-16T10:45:08.305Z,98878.72
2022-11-16T10:47:45.210Z,98867.72
2022-11-16T10:50:39.520Z,98861.13
2022-11-16T10:53:06.697Z,98853.50
2022-11-16T10:55:33.484Z,98854.38
2022-11-16T10:58:05.829Z,98855.84
2022-11-16T11:00:38.717Z,98851.13
2022-11-16T11:03:06.241Z,98846.81
2022-11-16T11:05:35.279Z,98849.66
2022-11-16T11:08:10.275Z,98844.78
2022-11-16T11:10:40.003Z,98845.16
2022-11-16T11:13:27.370Z,98836.94
2022-11-16T11:16:15.203Z,98837.84
2022-11-16T11:18:42.630Z,98841.91
2022-11-16T11:21:21.038Z,98838.66
2022-11-16T11:24:10.569Z,98835.31
2022-11-16T11:26:49.507Z,98825.59
2022-11-16T11:29:20.166Z,98829.19
2022-11-16T11:31:54.419Z,98827.28
2022-11-16T11:34:30.816Z,98816.97
2022-11-16T11:37:03.054Z,98825.69
2022-11-16T11:39:37.390Z,98823.09
2022-11-16T11:42:13.442Z,98824.56
2022-11-16T11:45:01.973Z,98814.13
2022-11-16T11:50:48.507Z,98812.34
2022-11-16T11:53:34.385Z,98812.84
2022-11-16T11:56:05.113Z,98807.69
2022-11-16T11:58:38.724Z,98807.47
2022-11-16T12:01:38.439Z,98813.81
2022-11-16T12:04:08.154Z,98814.28
2022-11-16T12:06:59.825Z,98821.47
2022-11-16T12:09:51.156Z,98834.97
2022-11-16T12:12:39.694Z,98821.63
2022-11-16T12:15:21.779Z,98814.13
2022-11-16T12:17:55.756Z,98809.56
2022-11-16T12:20:29.823Z,98807.75
2022-11-16T12:23:17.370Z,98812.47
2022-11-16T12:26:14.205Z,98799.00
2022-11-16T12:29:01.485Z,98802.56
2022-11-16T12:31:37.028Z,98800.75
2022-11-16T12:34:28.329Z,98796.16
2022-11-16T12:37:11.071Z,98793.53
2022-11-16T12:40:04.971Z,98780.97
2022-11-16T12:42:59.687Z,98780.84
2022-11-16T12:45:45.605Z,98783.78
2022-11-16T12:48:55.774Z,98772.03
2022-11-16T12:51:41.384Z,98773.47
2022-11-16T12:55:03.944Z,98777.25
2022-11-16T12:57:34.245Z,98769.16
2022-11-16T13:00:13.062Z,98778.56
2022-11-16T13:02:52.065Z,98768.69
2022-11-16T13:05:28.133Z,98778.22
2022-11-16T13:08:02.374Z,98778.34
2022-11-16T13:10:34.496Z,98767.25
2022-11-16T13:15:53.344Z,98778.34
2022-11-16T13:18:22.253Z,98771.09
2022-11-16T13:20:53.285Z,98771.41
2022-11-16T13:23:33.637Z,98768.69
2022-11-16T13:26:10.608Z,98763.94
2022-11-16T13:28:40.575Z,98756.59
2022-11-16T13:31:21.981Z,98758.03
2022-11-16T13:34:03.448Z,98767.09
2022-11-16T13:36:37.050Z,98770.19
2022-11-16T13:39:06.362Z,98766.44
2022-11-16T13:41:38.813Z,98769.22
2022-11-16T13:44:28.071Z,98766.47
2022-11-16T13:47:04.500Z,98769.81
2022-11-16T13:49:41.814Z,98778.75
2022-11-16T13:52:23.283Z,98768.91
2022-11-16T13:54:54.976Z,98773.66
2022-11-16T13:57:27.101Z,98773.41
2022-11-16T14:00:03.031Z,98776.41
2022-11-16T14:02:37.261Z,98767.47
2022-11-16T14:05:13.205Z,98767.72
2022-11-16T14:07:47.332Z,98765.84
2022-11-16T14:10:36.135Z,98765.63
2022-11-16T14:13:04.623Z,98773.09
2022-11-16T14:15:34.113Z,98775.25
2022-11-16T14:18:04.063Z,98783.94
2022-11-16T14:21:25.743Z,98786.63
2022-11-16T14:24:31.463Z,98784.56
2022-11-16T14:27:30.475Z,98767.53
2022-11-16T14:30:16.214Z,98767.47
2022-11-16T14:32:55.280Z,98762.28
2022-11-16T14:35:39.512Z,98770.00
2022-11-16T14:38:35.660Z,98767.34
2022-11-16T14:41:05.694Z,98764.41
2022-11-16T14:43:35.616Z,98759.28
2022-11-16T14:46:23.088Z,98762.31
2022-11-16T14:48:50.375Z,98755.06
2022-11-16T14:51:24.825Z,98754.97
2022-11-16T14:54:00.064Z,98762.88
2022-11-16T14:56:27.258Z,98763.25
2022-11-16T14:58:59.509Z,98766.69
2022-11-16T15:01:29.791Z,98758.31
2022-11-16T15:04:04.534Z,98759.28
2022-11-16T15:06:42.390Z,98758.47
2022-11-16T15:09:19.922Z,98760.50
2022-11-16T15:12:08.596Z,98763.69
2022-11-16T15:14:41.849Z,98763.59
2022-11-16T15:17:10.087Z,98765.13
2022-11-16T15:19:36.940Z,98755.69
2022-11-16T15:22:04.897Z,98747.63
2022-11-16T15:24:34.396Z,98762.53
2022-11-16T15:27:30.144Z,98758.97
2022-11-16T15:29:57.163Z,98761.25
2022-11-16T15:32:24.027Z,98764.50
2022-11-16T15:34:54.494Z,98768.25
2022-11-16T15:37:31.177Z,98767.19
2022-11-16T15:40:00.174Z,98763.94
2022-11-16T15:42:31.513Z,98749.59
2022-11-16T15:45:01.650Z,98752.88
2022-11-16T15:47:28.496Z,98751.94
2022-11-16T15:49:55.556Z,98746.56
2022-11-16T15:52:41.126Z,98740.28
2022-11-16T15:55:21.322Z,98744.06
2022-11-16T15:58:25.828Z,98755.84
2022-11-16T16:00:54.727Z,98761.38
2022-11-16T16:03:27.065Z,98763.22
2022-11-16T16:05:55.035Z,98766.16
2022-11-16T16:08:27.895Z,98754.75
2022-11-16T16:11:07.050Z,98765.03
2022-11-16T16:14:01.524Z,98772.75
2022-11-16T16:16:37.960Z,98779.00
2022-11-16T16:19:24.412Z,98783.56
2022-11-16T16:21:51.890Z,98782.91
2022-11-16T16:24:41.226Z,98772.25
2022-11-16T16:27:19.425Z,98772.97
2022-11-16T16:29:48.293Z,98783.88
2022-11-16T16:32:26.382Z,98784.25
2022-11-16T16:34:55.218Z,98800.69
2022-11-16T16:37:22.837Z,98797.81
2022-11-16T16:39:49.668Z,98799.84
2022-11-16T16:42:18.058Z,98808.25
2022-11-16T16:44:46.185Z,98807.66
2022-11-16T16:47:14.053Z,98815.84
2022-11-16T16:49:41.520Z,98824.47
2022-11-16T16:52:10.814Z,98825.38
2022-11-16T16:54:38.047Z,98837.28
2022-11-16T16:57:04.905Z,98828.91
2022-11-16T16:59:31.900Z,98831.25
2022-11-16T17:01:59.505Z,98837.41
2022-11-16T17:04:26.496Z,98838.34
2022-11-16T17:06:54.575Z,98838.47
2022-11-16T17:09:21.633Z,98847.59
2022-11-16T17:11:48.660Z,98845.16
2022-11-16T17:14:15.622Z,98855.66
2022-11-16T17:16:42.508Z,98855.97
2022-11-16T17:19:09.382Z,98868.13
2022-11-16T17:21:36.182Z,98864.16
2022-11-16T17:24:03.179Z,98876.53
2022-11-16T17:26:30.178Z,98868.88
2022-11-16T17:28:58.222Z,98874.09
2022-11-16T17:31:26.449Z,98865.50
2022-11-16T17:33:53.617Z,98864.91
2022-11-16T17:36:20.874Z,98869.00
2022-11-16T17:38:47.750Z,98864.91
2022-11-16T17:41:15.808Z,98872.59
2022-11-16T17:43:44.105Z,98881.94
2022-11-16T17:46:13.622Z,98879.25
2022-11-16T17:48:43.435Z,98887.31
2022-11-16T17:51:15.973Z,98878.19
2022-11-16T17:53:44.445Z,98875.16
2022-11-16T17:56:17.066Z,98879.72
2022-11-16T17:58:45.451Z,98876.44
2022-11-16T18:01:13.922Z,98867.81
2022-11-16T18:03:40.888Z,98868.41
2022-11-16T18:06:16.130Z,98858.69
2022-11-16T18:08:46.597Z,98854.97
2022-11-16T18:11:17.953Z,98852.13
2022-11-16T18:13:46.069Z,98848.44
2022-11-16T18:16:17.937Z,98860.47
2022-11-16T18:18:47.216Z,98856.31
2022-11-16T18:21:20.321Z,98849.03
2022-11-16T18:23:48.324Z,98860.25
2022-11-16T18:26:21.366Z,98856.84
2022-11-16T18:28:49.582Z,98851.94
2022-11-16T18:31:20.164Z,98856.72
2022-11-16T18:33:49.301Z,98851.03
2022-11-16T18:36:17.237Z,98838.66
2022-11-16T18:38:44.586Z,98828.94
2022-11-16T18:41:11.450Z,98821.38
2022-11-16T18:43:47.573Z,98830.53
2022-11-16T18:46:14.758Z,98833.97
2022-11-16T18:48:43.181Z,98833.84
2022-11-16T18:51:11.532Z,98820.22
2022-11-16T18:53:38.697Z,98829.78
2022-11-16T18:56:06.414Z,98833.31
2022-11-16T18:58:49.828Z,98840.50
2022-11-16T19:01:19.048Z,98848.66
2022-11-16T19:03:46.196Z,98863.97
2022-11-16T19:06:14.975Z,98857.66
2022-11-16T19:08:42.729Z,98864.91
2022-11-16T19:11:14.957Z,98869.16
2022-11-16T19:13:43.461Z,98867.75
2022-11-16T19:16:12.757Z,98869.38
2022-11-16T19:18:39.962Z,98863.34
2022-11-16T19:21:12.786Z,98873.47
2022-11-16T19:23:45.064Z,98888.09
2022-11-16T19:26:13.833Z,98884.03
2022-11-16T19:28:43.091Z,98872.06
2022-11-16T19:31:12.086Z,98878.94
2022-11-16T19:33:39.346Z,98881.28
2022-11-16T19:36:10.685Z,98901.00
2022-11-16T19:38:38.315Z,98901.53
2022-11-16T19:41:06.596Z,98891.50
2022-11-16T19:43:34.325Z,98880.44
2022-11-16T19:46:06.200Z,98873.69
2022-11-16T19:48:33.650Z,98877.06
2022-11-16T19:51:08.689Z,98876.25
2022-11-16T19:53:36.538Z,98878.22
2022-11-16T19:56:04.746Z,98881.50
2022-11-16T19:58:32.298Z,98893.38
2022-11-16T20:01:07.681Z,98912.97
2022-11-16T20:03:35.120Z,98922.69
2022-11-16T20:06:07.372Z,98923.75
2022-11-16T20:08:34.819Z,98912.78
2022-11-16T20:11:01.682Z,98918.03
2022-11-16T20:13:28.611Z,98922.00
2022-11-16T20:15:55.490Z,98917.22
2022-11-16T20:18:22.384Z,98924.22
2022-11-16T20:20:49.219Z,98920.38
2022-11-16T20:23:16.117Z,98932.59
2022-11-16T20:25:42.947Z,98929.34
2022-11-16T20:28:09.894Z,98927.25
2022-11-16T20:30:37.967Z,98928.06
2022-11-16T20:33:05.063Z,98923.97
2022-11-16T20:35:33.420Z,98929.69
2022-11-16T20:38:00.386Z,98927.34
2022-11-16T20:40:27.215Z,98928.66
2022-11-16T20:42:59.172Z,98941.34
2022-11-16T20:45:27.174Z,98930.97
2022-11-16T20:47:53.990Z,98920.22
2022-11-16T20:50:20.859Z,98928.75
2022-11-16T20:52:52.568Z,98914.88
2022-11-16T20:55:19.749Z,98910.56
2022-11-16T20:57:46.577Z,98909.88
2022-11-16T21:00:14.184Z,98913.38
2022-11-16T21:02:40.976Z,98922.59
2022-11-16T21:05:08.208Z,98918.28
2022-11-16T21:07:35.570Z,98914.53
2022-11-16T21:10:20.884Z,98917.31
2022-11-16T21:13:06.214Z,98916.75
2022-11-16T21:15:33.232Z,98918.84
2022-11-16T21:18:00.090Z,98914.16
2022-11-16T21:20:28.387Z,98917.91
2022-11-16T21:22:55.684Z,98912.56
2022-11-16T21:25:22.727Z,98915.81
2022-11-16T21:27:49.586Z,98921.97
2022-11-16T21:30:16.820Z,98922.22
2022-11-16T21:32:43.683Z,98922.91
2022-11-16T21:35:10.537Z,98935.63
2022-11-16T21:37:37.435Z,98936.78
2022-11-16T21:40:04.565Z,98942.66
2022-11-16T21:42:31.427Z,98941.69
2022-11-16T21:44:58.287Z,98946.47
2022-11-16T21:47:25.088Z,98954.66
2022-11-16T21:50:16.846Z,98953.47
2022-11-16T21:52:38.777Z,98945.88
2022-11-16T21:55:05.810Z,98940.88
2022-11-16T21:57:32.739Z,98937.47
2022-11-16T22:00:01.275Z,98938.63
2022-11-16T22:02:38.386Z,98938.75
2022-11-16T22:05:24.465Z,98940.41
2022-11-16T22:07:52.320Z,98937.34
2022-11-16T22:10:19.296Z,98942.47
2022-11-16T22:12:46.190Z,98949.63
2022-11-16T22:15:14.180Z,98947.28
2022-11-16T22:17:45.029Z,98954.41
2022-11-16T22:20:12.755Z,98958.59
2022-11-16T22:22:40.007Z,98951.47
2022-11-16T22:25:07.384Z,98957.63
2022-11-16T22:27:52.103Z,98955.16
2022-11-16T22:30:21.594Z,98961.94
2022-11-16T22:32:48.424Z,98959.25
2022-11-16T22:35:15.323Z,98960.31
2022-11-16T22:37:42.438Z,98968.44
2022-11-16T22:40:14.966Z,98964.09
2022-11-16T22:42:44.601Z,98967.03
2022-11-16T22:45:12.238Z,98962.84
2022-11-16T22:47:39.237Z,98964.25
2022-11-16T22:50:06.454Z,98955.03
2022-11-16T22:52:33.416Z,98955.91
2022-11-16T22:55:00.280Z,98960.31
2022-11-16T22:57:27.120Z,98959.03
2022-11-16T22:59:54.105Z,98965.66
2022-11-16T23:02:20.952Z,98962.22
2022-11-16T23:04:47.766Z,98951.19
2022-11-16T23:07:14.672Z,98951.78
2022-11-16T23:09:41.566Z,98950.63
2022-11-16T23:12:27.436Z,98955.63
2022-11-16T23:15:12.992Z,98958.78
2022-11-16T23:17:39.968Z,98936.41
2022-11-16T23:20:25.995Z,98933.47
2022-11-16T23:23:11.320Z,98941.03
2022-11-16T23:25:56.689Z,98943.47
2022-11-16T23:28:23.693Z,98939.25
2022-11-16T23:30:50.551Z,98934.66
2022-11-16T23:33:17.485Z,98926.06
2022-11-16T23:35:44.309Z,98925.03
2022-11-16T23:38:11.154Z,98927.03
2022-11-16T23:40:39.695Z,98924.66
2022-11-16T23:43:28.592Z,98918.03
2022-11-16T23:45:55.568Z,98928.72
2022-11-16T23:48:22.398Z,98933.59
2022-11-16T23:50:49.310Z,98929.44
2022-11-16T23:53:16.212Z,98931.72
2022-11-16T23:55:43.170Z,98934.66
2022-11-16T23:58:14.445Z,98938.97
